createdAt,value
2019-05-05T00:01:07.969Z,-74
2019-05-05T00:03:50.991Z,-75
2019-05-05T00:06:20.312Z,-74
2019-05-05T00:08:49.703Z,-74
2019-05-05T00:11:39.152Z,-74
2019-05-05T00:14:12.819Z,-74
2019-05-05T00:16:49.979Z,-72
2019-05-05T00:19:30.655Z,-74
2019-05-05T00:21:51.436Z,-74
2019-05-05T00:24:20.772Z,-74
2019-05-05T00:26:50.098Z,-74
2019-05-05T00:29:19.404Z,-74
2019-05-05T00:31:48.716Z,-72
2019-05-05T00:34:18.027Z,-72
2019-05-05T00:36:47.468Z,-72
2019-05-05T00:39:16.855Z,-72
2019-05-05T00:41:46.168Z,-72
2019-05-05T00:44:15.551Z,-72
2019-05-05T00:46:56.685Z,-72
2019-05-05T00:49:37.398Z,-72
2019-05-05T00:52:05.083Z,-74
2019-05-05T00:54:34.803Z,-75
2019-05-05T00:57:04.547Z,-74
2019-05-05T00:59:34.952Z,-74
2019-05-05T01:02:08.716Z,-74
2019-05-05T01:04:39.684Z,-74
2019-05-05T01:07:09.075Z,-74
2019-05-05T01:09:40.097Z,-74
2019-05-05T01:12:09.759Z,-74
2019-05-05T01:14:39.104Z,-74
2019-05-05T01:17:08.417Z,-75
2019-05-05T01:19:37.737Z,-75
2019-05-05T01:22:07.058Z,-74
2019-05-05T01:24:36.707Z,-74
2019-05-05T01:27:06.159Z,-74
2019-05-05T01:29:35.471Z,-72
2019-05-05T01:32:06.452Z,-72
2019-05-05T01:34:37.412Z,-72
2019-05-05T01:37:25.460Z,-72
2019-05-05T01:39:56.571Z,-74
2019-05-05T01:42:26.324Z,-74
2019-05-05T01:44:55.636Z,-74
2019-05-05T01:47:25.531Z,-74
2019-05-05T01:49:54.972Z,-74
2019-05-05T01:52:25.760Z,-74
2019-05-05T01:54:56.075Z,-74
2019-05-05T01:57:26.024Z,-74
2019-05-05T01:59:55.444Z,-74
2019-05-05T02:02:25.220Z,-74
2019-05-05T02:04:55.292Z,-74
2019-05-05T02:07:25.127Z,-74
2019-05-05T02:09:55.359Z,-74
2019-05-05T02:12:24.941Z,-74
2019-05-05T02:14:55.140Z,-74
2019-05-05T02:17:24.814Z,-74
2019-05-05T02:19:54.945Z,-74
2019-05-05T02:22:25.242Z,-74
2019-05-05T02:24:55.189Z,-73
2019-05-05T02:27:25.264Z,-74
2019-05-05T02:29:56.492Z,-74
2019-05-05T02:32:30.273Z,-74
2019-05-05T02:35:01.816Z,-74
2019-05-05T02:37:31.146Z,-74
2019-05-05T02:40:06.352Z,-74
2019-05-05T02:42:35.248Z,-74
2019-05-05T02:45:06.000Z,-74
2019-05-05T02:47:56.826Z,-74
2019-05-05T02:50:46.535Z,-74
2019-05-05T02:53:04.084Z,-74
2019-05-05T02:55:34.783Z,-74
2019-05-05T02:58:04.267Z,-74
2019-05-05T03:00:35.316Z,-74
2019-05-05T03:03:06.619Z,-74
2019-05-05T03:05:37.150Z,-74
2019-05-05T03:08:06.531Z,-73
2019-05-05T03:10:36.196Z,-73
2019-05-05T03:13:05.856Z,-74
2019-05-05T03:15:55.005Z,-74
2019-05-05T03:18:24.775Z,-74
2019-05-05T03:21:02.376Z,-74
2019-05-05T03:23:26.489Z,-74
2019-05-05T03:25:55.826Z,-74
2019-05-05T03:28:27.926Z,-74
2019-05-05T03:30:57.341Z,-74
2019-05-05T03:33:26.664Z,-74
2019-05-05T03:35:56.243Z,-74
2019-05-05T03:38:25.946Z,-73
2019-05-05T03:40:57.168Z,-74
2019-05-05T03:43:34.366Z,-74
2019-05-05T03:46:05.795Z,-74
2019-05-05T03:48:35.225Z,-74
2019-05-05T03:51:16.004Z,-74
2019-05-05T03:53:36.674Z,-74
2019-05-05T03:56:06.336Z,-74
2019-05-05T03:58:35.728Z,-74
2019-05-05T04:01:20.325Z,-74
2019-05-05T04:03:49.659Z,-74
2019-05-05T04:06:20.789Z,-73
2019-05-05T04:08:51.123Z,-74
2019-05-05T04:11:20.446Z,-74
2019-05-05T04:13:50.026Z,-74
2019-05-05T04:16:23.649Z,-73
2019-05-05T04:18:57.206Z,-74
2019-05-05T04:21:33.188Z,-74
2019-05-05T04:23:57.565Z,-73
2019-05-05T04:26:27.910Z,-73
2019-05-05T04:28:57.304Z,-74
2019-05-05T04:31:26.623Z,-74
2019-05-05T04:33:55.968Z,-74
2019-05-05T04:36:25.279Z,-74
2019-05-05T04:38:54.728Z,-74
2019-05-05T04:41:24.627Z,-74
2019-05-05T04:43:54.722Z,-74
2019-05-05T04:46:24.618Z,-74
2019-05-05T04:48:58.858Z,-74
2019-05-05T04:51:29.821Z,-74
2019-05-05T04:54:07.736Z,-73
2019-05-05T04:56:37.056Z,-73
2019-05-05T04:59:06.377Z,-74
2019-05-05T05:01:36.174Z,-73
2019-05-05T05:04:25.496Z,-73
2019-05-05T05:06:57.421Z,-74
2019-05-05T05:09:26.765Z,-74
2019-05-05T05:11:56.153Z,-73
2019-05-05T05:14:25.468Z,-74
2019-05-05T05:16:56.935Z,-74
2019-05-05T05:19:26.249Z,-73
2019-05-05T05:22:01.622Z,-74
2019-05-05T05:24:26.583Z,-73
2019-05-05T05:26:55.901Z,-74
2019-05-05T05:29:25.249Z,-70
2019-05-05T05:31:54.560Z,-73
2019-05-05T05:34:23.985Z,-74
2019-05-05T05:36:53.725Z,-74
2019-05-05T05:39:36.720Z,-74
2019-05-05T05:42:06.036Z,-70
2019-05-05T05:44:46.220Z,-71
2019-05-05T05:47:17.188Z,-71
2019-05-05T05:50:04.801Z,-74
2019-05-05T05:52:34.435Z,-71
2019-05-05T05:55:07.681Z,-72
2019-05-05T05:57:36.991Z,-74
2019-05-05T06:00:07.223Z,-73
2019-05-05T06:02:36.553Z,-72
2019-05-05T06:05:06.416Z,-74
2019-05-05T06:07:36.798Z,-73
2019-05-05T06:10:06.443Z,-72
2019-05-05T06:12:35.781Z,-75
2019-05-05T06:15:05.439Z,-72
2019-05-05T06:17:34.747Z,-71
2019-05-05T06:20:05.804Z,-71
2019-05-05T06:22:35.120Z,-70
2019-05-05T06:25:06.733Z,-74
2019-05-05T06:27:36.369Z,-74
2019-05-05T06:30:07.080Z,-74
2019-05-05T06:32:36.404Z,-74
2019-05-05T06:35:07.424Z,-75
2019-05-05T06:37:39.348Z,-75
2019-05-05T06:40:10.502Z,-75
2019-05-05T06:42:58.806Z,-75
2019-05-05T06:45:29.863Z,-73
2019-05-05T06:48:01.012Z,-73
2019-05-05T06:50:30.338Z,-73
2019-05-05T06:52:59.656Z,-74
2019-05-05T06:55:29.940Z,-74
2019-05-05T06:57:59.275Z,-74
2019-05-05T07:00:28.590Z,-74
2019-05-05T07:02:57.972Z,-75
2019-05-05T07:05:27.284Z,-75
2019-05-05T07:07:56.604Z,-72
2019-05-05T07:10:25.932Z,-74
2019-05-05T07:12:55.248Z,-73
2019-05-05T07:15:24.593Z,-72
2019-05-05T07:17:53.915Z,-72
2019-05-05T07:20:24.104Z,-73
2019-05-05T07:23:01.195Z,-73
2019-05-05T07:25:25.739Z,-71
2019-05-05T07:27:55.095Z,-73
2019-05-05T07:30:24.460Z,-73
2019-05-05T07:32:53.861Z,-74
2019-05-05T07:35:54.932Z,-74
2019-05-05T07:38:13.704Z,-74
2019-05-05T07:40:43.941Z,-73
2019-05-05T07:43:14.653Z,-73
2019-05-05T07:45:44.651Z,-72
2019-05-05T07:48:14.069Z,-74
2019-05-05T07:50:52.268Z,-73
2019-05-05T07:53:17.686Z,-73
2019-05-05T07:55:46.948Z,-73
2019-05-05T07:58:16.264Z,-72
2019-05-05T08:00:45.581Z,-73
2019-05-05T08:03:14.906Z,-73
2019-05-05T08:05:44.363Z,-73
2019-05-05T08:08:14.732Z,-72
2019-05-05T08:10:44.128Z,-74
2019-05-05T08:13:14.079Z,-74
2019-05-05T08:15:56.714Z,-72
2019-05-05T08:18:35.343Z,-73
2019-05-05T08:21:06.307Z,-74
2019-05-05T08:23:39.240Z,-76
2019-05-05T08:26:13.714Z,-73
2019-05-05T08:28:44.900Z,-70
2019-05-05T08:31:33.938Z,-73
2019-05-05T08:34:03.873Z,-72
2019-05-05T08:36:33.840Z,-74
2019-05-05T08:39:03.713Z,-75
2019-05-05T08:41:33.870Z,-75
2019-05-05T08:44:04.560Z,-74
2019-05-05T08:46:34.110Z,-73
2019-05-05T08:49:04.365Z,-75
2019-05-05T08:51:34.033Z,-76
2019-05-05T08:54:03.930Z,-74
2019-05-05T08:56:35.843Z,-73
2019-05-05T08:59:05.161Z,-73
2019-05-05T09:01:34.478Z,-74
2019-05-05T09:04:04.182Z,-73
2019-05-05T09:06:34.188Z,-73
2019-05-05T09:09:06.964Z,-74
2019-05-05T09:11:36.286Z,-73
2019-05-05T09:14:05.672Z,-73
2019-05-05T09:16:34.989Z,-74
2019-05-05T09:19:06.033Z,-73
2019-05-05T09:21:35.571Z,-76
2019-05-05T09:24:15.511Z,-72
2019-05-05T09:26:53.982Z,-72
2019-05-05T09:29:38.671Z,-72
2019-05-05T09:32:08.000Z,-75
2019-05-05T09:34:37.324Z,-74
2019-05-05T09:37:06.711Z,-74
2019-05-05T09:39:36.101Z,-74
2019-05-05T09:42:05.506Z,-74
2019-05-05T09:44:34.821Z,-74
2019-05-05T09:47:04.932Z,-73
2019-05-05T09:49:34.379Z,-74
2019-05-05T09:52:04.972Z,-72
2019-05-05T09:54:34.690Z,-73
2019-05-05T09:57:05.038Z,-74
2019-05-05T09:59:34.735Z,-74
2019-05-05T10:02:04.597Z,-74
2019-05-05T10:04:37.183Z,-74
2019-05-05T10:07:06.495Z,-74
2019-05-05T10:09:35.837Z,-73
2019-05-05T10:12:05.228Z,-74
2019-05-05T10:14:34.557Z,-74
2019-05-05T10:17:04.933Z,-75
2019-05-05T10:19:34.546Z,-78
2019-05-05T10:22:04.254Z,-75
2019-05-05T10:24:39.074Z,-75
2019-05-05T10:27:09.015Z,-76
2019-05-05T10:29:38.340Z,-72
2019-05-05T10:32:07.739Z,-76
2019-05-05T10:34:37.128Z,-73
2019-05-05T10:37:06.471Z,-75
2019-05-05T10:39:43.881Z,-75
2019-05-05T10:42:14.452Z,-74
2019-05-05T10:44:44.604Z,-72
2019-05-05T10:47:14.041Z,-73
2019-05-05T10:49:44.142Z,-73
2019-05-05T10:52:14.350Z,-74
2019-05-05T10:54:44.935Z,-74
2019-05-05T10:57:18.328Z,-75
2019-05-05T10:59:46.372Z,-74
2019-05-05T11:02:15.776Z,-75
2019-05-05T11:04:45.100Z,-74
2019-05-05T11:07:14.735Z,-73
2019-05-05T11:09:44.496Z,-72
2019-05-05T11:12:14.417Z,-71
2019-05-05T11:14:44.552Z,-72
2019-05-05T11:17:14.554Z,-72
2019-05-05T11:19:44.300Z,-72
2019-05-05T11:22:14.717Z,-72
2019-05-05T11:24:57.360Z,-72
2019-05-05T11:27:15.236Z,-72
2019-05-05T11:29:46.268Z,-73
2019-05-05T11:32:18.277Z,-72
2019-05-05T11:34:47.585Z,-72
2019-05-05T11:37:16.980Z,-71
2019-05-05T11:39:46.297Z,-72
2019-05-05T11:42:16.676Z,-72
2019-05-05T11:44:47.559Z,-72
2019-05-05T11:47:17.080Z,-72
2019-05-05T11:49:46.530Z,-71
2019-05-05T11:52:15.839Z,-71
2019-05-05T11:54:45.232Z,-72
2019-05-05T11:57:14.551Z,-72
2019-05-05T11:59:44.428Z,-74
2019-05-05T12:02:14.811Z,-74
2019-05-05T12:04:44.143Z,-74
2019-05-05T12:07:14.662Z,-72
2019-05-05T12:09:45.735Z,-73
2019-05-05T12:12:15.078Z,-74
2019-05-05T12:14:44.760Z,-69
2019-05-05T12:17:15.767Z,-71
2019-05-05T12:19:45.089Z,-70
2019-05-05T12:22:14.408Z,-70
2019-05-05T12:24:45.689Z,-70
2019-05-05T12:27:16.659Z,-70
2019-05-05T12:29:46.952Z,-69
2019-05-05T12:32:16.275Z,-71
2019-05-05T12:34:45.607Z,-69
2019-05-05T12:37:14.930Z,-71
2019-05-05T12:39:44.336Z,-71
2019-05-05T12:42:14.130Z,-71
2019-05-05T12:44:45.356Z,-71
2019-05-05T12:47:16.405Z,-71
2019-05-05T12:49:45.727Z,-71
2019-05-05T12:52:15.055Z,-71
2019-05-05T12:54:44.379Z,-68
2019-05-05T12:57:13.814Z,-72
2019-05-05T12:59:44.418Z,-70
2019-05-05T13:02:14.381Z,-69
2019-05-05T13:04:43.811Z,-70
2019-05-05T13:07:13.604Z,-70
2019-05-05T13:09:44.232Z,-69
2019-05-05T13:12:15.015Z,-71
2019-05-05T13:14:44.577Z,-70
2019-05-05T13:17:14.274Z,-72
2019-05-05T13:19:49.195Z,-71
2019-05-05T13:22:36.644Z,-74
2019-05-05T13:25:21.069Z,-73
2019-05-05T13:27:50.402Z,-73
2019-05-05T13:30:19.866Z,-74
2019-05-05T13:32:49.196Z,-74
2019-05-05T13:35:18.516Z,-74
2019-05-05T13:37:47.859Z,-74
2019-05-05T13:40:17.733Z,-74
2019-05-05T13:42:48.034Z,-74
2019-05-05T13:45:20.298Z,-74
2019-05-05T13:47:50.780Z,-73
2019-05-05T13:50:24.572Z,-74
2019-05-05T13:52:53.913Z,-74
2019-05-05T13:55:24.123Z,-74
2019-05-05T13:57:54.843Z,-74
2019-05-05T14:00:25.609Z,-74
2019-05-05T14:02:55.124Z,-74
2019-05-05T14:05:25.039Z,-74
2019-05-05T14:07:54.436Z,-74
2019-05-05T14:10:23.832Z,-73
2019-05-05T14:12:53.227Z,-74
2019-05-05T14:15:23.476Z,-73
2019-05-05T14:17:54.359Z,-74
2019-05-05T14:20:24.019Z,-74
2019-05-05T14:22:54.358Z,-74
2019-05-05T14:25:31.446Z,-74
2019-05-05T14:28:01.050Z,-74
2019-05-05T14:30:34.115Z,-74
2019-05-05T14:33:04.236Z,-74
2019-05-05T14:35:35.212Z,-74
2019-05-05T14:38:09.823Z,-74
2019-05-05T14:40:39.147Z,-74
2019-05-05T14:43:08.484Z,-74
2019-05-05T14:45:37.877Z,-74
2019-05-05T14:48:07.200Z,-74
2019-05-05T14:50:36.548Z,-74
2019-05-05T14:53:05.879Z,-74
2019-05-05T14:55:35.195Z,-74
2019-05-05T14:58:05.495Z,-74
2019-05-05T15:00:35.224Z,-74
2019-05-05T15:03:04.578Z,-74
2019-05-05T15:05:35.712Z,-74
2019-05-05T15:08:07.361Z,-74
2019-05-05T15:10:50.626Z,-74
2019-05-05T15:13:24.250Z,-74
2019-05-05T15:15:54.032Z,-74
2019-05-05T15:18:24.139Z,-74
2019-05-05T15:20:54.824Z,-73
2019-05-05T15:23:24.241Z,-74
2019-05-05T15:25:54.077Z,-74
2019-05-05T15:28:24.524Z,-74
2019-05-05T15:30:54.581Z,-74
2019-05-05T15:33:24.444Z,-74
2019-05-05T15:35:54.512Z,-73
2019-05-05T15:38:24.431Z,-74
2019-05-05T15:40:54.760Z,-74
2019-05-05T15:43:24.512Z,-74
2019-05-05T15:45:55.935Z,-74
2019-05-05T15:48:25.256Z,-71
2019-05-05T15:50:54.722Z,-72
2019-05-05T15:53:24.195Z,-72
2019-05-05T15:55:53.982Z,-72
2019-05-05T15:58:23.654Z,-72
2019-05-05T16:00:54.012Z,-72
2019-05-05T16:03:23.406Z,-72
2019-05-05T16:05:54.301Z,-72
2019-05-05T16:08:23.927Z,-72
2019-05-05T16:10:54.637Z,-74
2019-05-05T16:13:24.186Z,-74
2019-05-05T16:16:01.896Z,-74
2019-05-05T16:18:32.943Z,-73
2019-05-05T16:21:17.289Z,-74
2019-05-05T16:23:48.261Z,-74
2019-05-05T16:26:17.593Z,-74
2019-05-05T16:28:46.999Z,-74
2019-05-05T16:31:16.317Z,-74
2019-05-05T16:33:48.560Z,-74
2019-05-05T16:36:16.698Z,-74
2019-05-05T16:38:47.554Z,-74
2019-05-05T16:41:16.884Z,-73
2019-05-05T16:43:46.212Z,-72
2019-05-05T16:46:16.983Z,-72
2019-05-05T16:48:46.540Z,-71
2019-05-05T16:51:17.509Z,-72
2019-05-05T16:53:46.830Z,-72
2019-05-05T16:56:17.485Z,-74
2019-05-05T16:58:46.804Z,-74
2019-05-05T17:01:18.177Z,-74
2019-05-05T17:03:47.511Z,-74
2019-05-05T17:06:16.908Z,-74
2019-05-05T17:08:46.236Z,-73
2019-05-05T17:11:15.556Z,-74
2019-05-05T17:13:49.884Z,-73
2019-05-05T17:16:20.831Z,-74
2019-05-05T17:18:57.735Z,-73
2019-05-05T17:21:31.544Z,-73
2019-05-05T17:24:00.899Z,-73
2019-05-05T17:26:30.293Z,-74
2019-05-05T17:28:59.612Z,-74
2019-05-05T17:31:31.341Z,-74
2019-05-05T17:34:00.673Z,-73
2019-05-05T17:36:30.005Z,-73
2019-05-05T17:38:59.339Z,-74
2019-05-05T17:41:34.124Z,-73
2019-05-05T17:44:05.244Z,-74
2019-05-05T17:46:40.933Z,-74
2019-05-05T17:49:17.976Z,-74
2019-05-05T17:51:51.655Z,-74
2019-05-05T17:54:31.337Z,-74
2019-05-05T17:57:00.678Z,-73
2019-05-05T17:59:30.076Z,-74
2019-05-05T18:02:00.307Z,-74
2019-05-05T18:04:29.624Z,-74
2019-05-05T18:07:04.242Z,-74
2019-05-05T18:09:53.645Z,-74
2019-05-05T18:12:26.937Z,-73
2019-05-05T18:14:57.916Z,-74
2019-05-05T18:17:27.257Z,-74
2019-05-05T18:19:56.667Z,-74
2019-05-05T18:22:25.992Z,-74
2019-05-05T18:24:55.329Z,-74
2019-05-05T18:27:24.645Z,-73
2019-05-05T18:29:54.451Z,-74
2019-05-05T18:32:23.889Z,-74
2019-05-05T18:34:54.509Z,-74
2019-05-05T18:37:25.719Z,-74
2019-05-05T18:39:55.049Z,-74
2019-05-05T18:42:26.411Z,-74
2019-05-05T18:45:03.819Z,-73
2019-05-05T18:47:34.062Z,-73
2019-05-05T18:50:05.405Z,-74
2019-05-05T18:52:36.163Z,-74
2019-05-05T18:55:06.965Z,-73
2019-05-05T18:57:36.358Z,-74
2019-05-05T19:00:08.893Z,-74
2019-05-05T19:02:47.884Z,-74
2019-05-05T19:05:18.968Z,-74
2019-05-05T19:07:55.358Z,-74
2019-05-05T19:10:21.919Z,-74
2019-05-05T19:12:51.299Z,-73
2019-05-05T19:15:20.793Z,-74
2019-05-05T19:17:50.184Z,-74
2019-05-05T19:20:27.469Z,-73
2019-05-05T19:23:05.508Z,-74
2019-05-05T19:25:35.828Z,-74
2019-05-05T19:28:05.354Z,-73
2019-05-05T19:30:36.142Z,-74
2019-05-05T19:33:06.180Z,-74
2019-05-05T19:35:44.161Z,-74
2019-05-05T19:38:06.613Z,-74
2019-05-05T19:40:37.614Z,-74
2019-05-05T19:43:07.470Z,-73
2019-05-05T19:45:36.787Z,-74
2019-05-05T19:48:06.186Z,-73
2019-05-05T19:50:46.244Z,-73
2019-05-05T19:53:25.242Z,-73
2019-05-05T19:55:55.285Z,-73
2019-05-05T19:58:24.698Z,-74
2019-05-05T20:00:57.712Z,-74
2019-05-05T20:03:27.853Z,-74
2019-05-05T20:05:57.287Z,-74
2019-05-05T20:08:39.754Z,-73
2019-05-05T20:10:57.627Z,-73
2019-05-05T20:13:26.940Z,-74
2019-05-05T20:15:58.849Z,-73
2019-05-05T20:18:28.173Z,-73
2019-05-05T20:21:03.931Z,-73
2019-05-05T20:23:30.563Z,-73
2019-05-05T20:25:59.890Z,-73
2019-05-05T20:28:29.246Z,-74
2019-05-05T20:30:58.564Z,-74
2019-05-05T20:33:29.522Z,-73
2019-05-05T20:36:04.613Z,-74
2019-05-05T20:38:50.908Z,-74
2019-05-05T20:41:21.530Z,-74
2019-05-05T20:43:50.857Z,-73
2019-05-05T20:46:20.257Z,-73
2019-05-05T20:48:49.582Z,-74
2019-05-05T20:51:18.912Z,-74
2019-05-05T20:53:49.385Z,-74
2019-05-05T20:56:18.841Z,-74
2019-05-05T20:58:48.232Z,-73
2019-05-05T21:01:17.556Z,-74
2019-05-05T21:03:47.788Z,-74
2019-05-05T21:06:17.115Z,-74
2019-05-05T21:08:46.906Z,-74
2019-05-05T21:11:17.842Z,-74
2019-05-05T21:13:47.169Z,-73
2019-05-05T21:16:16.489Z,-73
2019-05-05T21:18:45.817Z,-74
2019-05-05T21:21:16.803Z,-74
2019-05-05T21:23:47.771Z,-74
2019-05-05T21:26:25.984Z,-73
2019-05-05T21:28:55.317Z,-74
2019-05-05T21:31:24.654Z,-73
2019-05-05T21:33:54.850Z,-73
2019-05-05T21:36:24.477Z,-74
2019-05-05T21:38:54.845Z,-73
2019-05-05T21:41:24.569Z,-73
2019-05-05T21:43:54.230Z,-74
2019-05-05T21:46:24.118Z,-73
2019-05-05T21:48:54.306Z,-73
2019-05-05T21:51:30.967Z,-74
2019-05-05T21:54:18.466Z,-73
2019-05-05T21:56:55.222Z,-74
2019-05-05T21:59:25.680Z,-74
2019-05-05T22:01:55.045Z,-73
2019-05-05T22:04:25.326Z,-74
2019-05-05T22:06:54.652Z,-74
2019-05-05T22:09:24.947Z,-74
2019-05-05T22:11:54.575Z,-74
2019-05-05T22:14:25.055Z,-73
2019-05-05T22:16:56.345Z,-74
2019-05-05T22:19:37.093Z,-74
2019-05-05T22:22:11.028Z,-74
2019-05-05T22:24:40.361Z,-74
2019-05-05T22:27:09.693Z,-74
2019-05-05T22:29:39.918Z,-73
2019-05-05T22:32:09.236Z,-73
2019-05-05T22:34:39.278Z,-73
2019-05-05T22:37:09.754Z,-73
2019-05-05T22:39:39.305Z,-74
2019-05-05T22:42:08.639Z,-73
2019-05-05T22:44:37.960Z,-74
2019-05-05T22:47:07.288Z,-73
2019-05-05T22:49:36.611Z,-73
2019-05-05T22:52:06.563Z,-74
2019-05-05T22:54:35.967Z,-73
2019-05-05T22:57:05.362Z,-73
2019-05-05T22:59:34.699Z,-73
2019-05-05T23:02:04.146Z,-73
2019-05-05T23:04:38.943Z,-72
2019-05-05T23:07:14.398Z,-72
2019-05-05T23:09:44.405Z,-71
2019-05-05T23:12:13.923Z,-71
2019-05-05T23:14:43.747Z,-71
2019-05-05T23:17:26.990Z,-72
2019-05-05T23:20:06.860Z,-74
2019-05-05T23:22:47.632Z,-73
2019-05-05T23:25:19.589Z,-73
2019-05-05T23:27:51.847Z,-74
2019-05-05T23:30:23.795Z,-74
2019-05-05T23:32:54.868Z,-73
2019-05-05T23:35:24.381Z,-74
2019-05-05T23:37:55.262Z,-73
2019-05-05T23:40:26.558Z,-73
2019-05-05T23:42:55.899Z,-74
2019-05-05T23:45:25.227Z,-74
2019-05-05T23:47:54.927Z,-74
2019-05-05T23:50:24.588Z,-73
2019-05-05T23:52:54.633Z,-73
2019-05-05T23:55:26.188Z,-74
2019-05-05T23:57:55.513Z,-73
